• Join FlightAware (Why Join?)
  • Login
  • US Flag 
01:57AM EDT


 

Airport Tracker/Info


-or-


 

Live Flight TrackerFlight Track Log ✈ QFA1074 ✈ 28-Oct-2013 ✈ YPPH / PER - YBRM / BME

Flight Track Log - Related Links

Times and Time Zones

All times are in EDT time to prevent confusion due to time zone crossing. See the QFA1074 flight status page for this flight to view local times or setup timezone preferences in your user account.

Time Position Orientation Groundspeed Altitude Reporting Facility
EDT Latitude Longitude Course Direction KTS MPH feet Rate Location/Type
10:04PM -31.9444 115.9639 84° East 105 121  Level FlightAware ADS-B (YPPH / PER)
10:04PM -31.9180 115.9720 15° North 168 193 800 1,800 Climbing FlightAware
10:05PM -31.9020 115.9760 12° North 166 191 1,800 2,520 Climbing FlightAware
10:05PM -31.8800 115.9830 12° North 178 205 2,900 2,520 Climbing FlightAware
10:05PM -31.8747 115.9853 12° North 177 204 3,300 1,920 Climbing Aus ATC (RADAR)
10:06PM -31.8638 116.0096 54° Northeast 225 259 3,800 1,800 Climbing FlightAware ADS-B (YPPH / PER)
10:06PM -31.8615 116.0495 54° Northeast 229 264 5,000 1,260 Climbing Aus ATC (RADAR)
10:06PM -31.8590 116.0812 54° Northeast 307 353 4,900 1,200 Descending FlightAware ADS-B (YPPH / PER)
10:07PM -31.8564 116.1159 85° East 324 373 5,800 3,120 Climbing FlightAware ADS-B (YPPH / PER)
10:07PM -31.8517 116.1482 80° East 326 375 6,900 3,360 Climbing FlightAware ADS-B (YPPH / PER)
10:07PM -31.8456 116.1810 78° East 333 383 7,900 3,000 Climbing FlightAware ADS-B (YPPH / PER)
10:08PM -31.8369 116.2253 77° East 340 391 9,100 2,820 Climbing FlightAware ADS-B (YPPH / PER)
10:08PM -31.8300 116.2602 77° East 351 404 10,000 2,880 Climbing FlightAware ADS-B (YPPH / PER)
10:09PM -31.8182 116.3171 76° East 358 412 11,500 3,000 Climbing FlightAware ADS-B (YPPH / PER)
10:09PM -31.8103 116.3346 62° Northeast 357 411 12,000 3,120 Climbing FlightAware ADS-B (YPPH / PER)
10:09PM -31.7993 116.3491 48° Northeast 356 410 12,600 3,000 Climbing FlightAware ADS-B (YPPH / PER)
10:09PM -31.7571 116.3895 39° Northeast 370 426 14,100 2,820 Climbing FlightAware ADS-B (YPPH / PER)
10:10PM -31.7164 116.4273 38° Northeast 372 428 15,500 2,760 Climbing FlightAware ADS-B (YPPH / PER)
10:10PM -31.6741 116.4661 38° Northeast 376 433 16,900 2,700 Climbing FlightAware ADS-B (YPPH / PER)
10:11PM -31.6322 116.5045 38° Northeast 391 450 18,200 2,280 Climbing FlightAware ADS-B (YPPH / PER)
10:11PM -31.5862 116.5398 33° Northeast 401 461 19,200 2,160 Climbing FlightAware ADS-B (YPPH / PER)
10:12PM -31.5353 116.5676 25° Northeast 408 470 20,400 2,400 Climbing FlightAware ADS-B (YPPH / PER)
10:12PM -31.4803 116.5977 25° Northeast 411 473 21,700 2,280 Climbing FlightAware ADS-B (YPPH / PER)
10:13PM -31.4283 116.6264 25° Northeast 409 471 22,800 2,160 Climbing FlightAware ADS-B (YPPH / PER)
10:13PM -31.3755 116.6556 25° Northeast 415 478 23,900 1,980 Climbing FlightAware ADS-B (YPPH / PER)
10:14PM -31.3223 116.6850 25° Northeast 428 493 24,800 1,680 Climbing FlightAware ADS-B (YPPH / PER)
10:15PM -31.2500 116.7248 25° Northeast 429 494 25,900 1,680 Climbing FlightAware ADS-B (YPPH / PER)
10:15PM -31.1941 116.7554 25° Northeast 441 507 26,800 1,740 Climbing FlightAware ADS-B (YPPH / PER)
10:16PM -31.1367 116.7868 25° Northeast 445 512 27,700 1,680 Climbing FlightAware ADS-B (YPPH / PER)
10:16PM -31.0811 116.8172 25° Northeast 448 516 28,500 1,500 Climbing FlightAware ADS-B (YPPH / PER)
10:17PM -31.0245 116.8482 25° Northeast 445 512 29,200 1,380 Climbing FlightAware ADS-B (YPPH / PER)
10:17PM -30.9669 116.8796 25° Northeast 448 516 29,900 1,380 Climbing FlightAware ADS-B (YPPH / PER)
10:18PM -30.9091 116.9110 25° Northeast 450 518 30,600 1,560 Climbing FlightAware ADS-B (YPPH / PER)
10:18PM -30.8521 116.9419 25° Northeast 448 516 31,500 1,500 Climbing FlightAware ADS-B (YPPH / PER)
10:19PM -30.7916 116.9751 25° Northeast 450 518 32,200 1,320 Climbing FlightAware ADS-B (YPPH / PER)
10:19PM -30.7341 117.0067 25° Northeast 449 517 32,900 1,320 Climbing FlightAware ADS-B (YPPH / PER)
10:20PM -30.6760 117.0382 25° Northeast 449 517 33,600 1,320 Climbing FlightAware ADS-B (YPPH / PER)
10:20PM -30.5993 117.0795 25° Northeast 448 516 34,500 1,080 Climbing FlightAware ADS-B (YPPH / PER)
10:21PM -30.5229 117.1205 25° Northeast 458 527 35,100 1,080 Climbing FlightAware ADS-B (YPPH / PER)
10:22PM -30.4635 117.1526 25° Northeast 458 527 35,800 840 Climbing Aus ATC (RADAR)
10:22PM -30.4433 117.1633 25° Northeast 461 531 35,700 720 Descending FlightAware ADS-B (YPPH / PER)
10:22PM -30.3838 117.1953 25° Northeast 462 532 36,300 960 Climbing FlightAware ADS-B (YPPH / PER)
10:23PM -30.3257 117.2266 25° Northeast 464 534 36,700 900 Climbing FlightAware ADS-B (YPPH / PER)
10:23PM -30.2674 117.2579 25° Northeast 463 533 37,200 960 Climbing FlightAware ADS-B (YPPH / PER)
10:24PM -30.2100 117.2887 25° Northeast 461 531 37,700 780 Climbing FlightAware ADS-B (YPPH / PER)
10:24PM -30.1514 117.3204 25° Northeast 460 529 38,000 300 Climbing FlightAware ADS-B (YPPH / PER)
10:25PM -30.0935 117.3514 25° Northeast 461 531 38,000  Level FlightAware ADS-B (YPPH / PER)
10:25PM -30.0168 117.3923 25° Northeast 462 532 38,000  Level FlightAware ADS-B (YPPH / PER)
10:26PM -29.9582 117.4236 25° Northeast 462 532 38,000  Level FlightAware ADS-B (YPPH / PER)
10:26PM -29.8996 117.4550 25° Northeast 463 533 38,000  Level FlightAware ADS-B (YPPH / PER)
10:27PM -29.8408 117.4860 25° Northeast 463 533 38,000  Level FlightAware ADS-B (YPPH / PER)
10:27PM -29.7830 117.5165 25° Northeast 463 533 38,000  Level FlightAware ADS-B (YPPH / PER)
10:28PM -29.7241 117.5477 25° Northeast 463 533 38,000  Level FlightAware ADS-B (YPPH / PER)
10:28PM -29.6621 117.5804 25° Northeast 462 532 38,000  Level FlightAware ADS-B (YPPH / PER)
10:29PM -29.6038 117.6113 25° Northeast 464 534 38,000  Level FlightAware ADS-B (YPPH / PER)
10:29PM -29.5448 117.6427 25° Northeast 459 528 38,000  Level FlightAware ADS-B (YPPH / PER)
10:30PM -29.4863 117.6737 25° Northeast 461 531 38,000  Level FlightAware ADS-B (YPPH / PER)
10:30PM -29.4279 117.7042 25° Northeast 462 532 38,000  Level FlightAware ADS-B (YPPH / PER)
10:31PM -29.3678 117.7357 25° Northeast 462 532 38,000  Level FlightAware ADS-B (YPPH / PER)
10:31PM -29.3067 117.7684 25° Northeast 463 533 38,000  Level FlightAware ADS-B (YPPH / PER)
10:32PM -29.2482 117.7995 25° Northeast 463 533 38,000  Level FlightAware ADS-B (YPPH / PER)
10:32PM -29.1874 117.8314 25° Northeast 464 534 38,000  Level FlightAware ADS-B (YPPH / PER)
10:33PM -29.1292 117.8618 24° Northeast 464 534 38,000  Level FlightAware ADS-B (YPPH / PER)
10:33PM -29.0683 117.8934 24° Northeast 465 535 38,000  Level FlightAware ADS-B (YPPH / PER)
10:34PM -29.0090 117.9242 24° Northeast 465 535 38,000  Level FlightAware ADS-B (YPPH / PER)
10:34PM -28.9505 117.9544 24° Northeast 474 545 38,000  Level FlightAware ADS-B (YPPH / PER)
10:35PM -28.8855 117.9882 24° Northeast 474 545 38,000  Level FlightAware ADS-B (YPPH / PER)
10:35PM -28.8250 118.0197 24° Northeast 474 545 38,000  Level FlightAware ADS-B (YPPH / PER)
10:36PM -28.7654 118.0504 24° Northeast 474 545 38,000  Level FlightAware ADS-B (YPPH / PER)
10:37PM -28.6954 118.0868 24° Northeast 474 545 38,000 120 Level FlightAware ADS-B (YPPH / PER)
10:37PM -28.6087 118.1275 24° Northeast 474 545 38,200  Climbing Aus ATC (RADAR)
10:38PM -28.7560 118.0430 24° Northeast 462 532 38,000  Descending FlightAware
10:38PM -28.4990 118.1842 24° Northeast 471 542 38,200  Climbing Aus ATC (RADAR)
10:38PM -28.6760 118.0830 25° Northeast 462 532 38,000  Descending FlightAware
10:39PM -28.4396 118.2150 25° Northeast 470 541 38,200 120 Climbing Aus ATC (RADAR)
10:40PM -28.3243 118.2802 25° Northeast 466 536 38,200  Level Aus ATC (RADAR)
10:41PM -28.1673 118.3604 24° Northeast 465 535 38,200  Level Aus ATC (RADAR)
10:42PM -28.0721 118.4137 26° Northeast 462 532 38,200  Level Aus ATC (RADAR)
10:45PM -27.7445 118.5564 21° North 38,000  Descending Aus ATC (Calculated)
10:47PM -27.5586 118.6370 21° North  Level FlightAware Approximate
10:48PM -27.4481 118.6847 21° North  Level FlightAware Approximate
10:48PM -27.3528 118.7259 20° North 38,000  Level Aus ATC (Calculated)
10:50PM -27.1391 118.8177 21° North  Level FlightAware Approximate
10:51PM -27.0286 118.8651 21° North  Level FlightAware Approximate
10:52PM -26.9180 118.9124 21° North  Level FlightAware Approximate
10:53PM -26.8074 118.9596 21° North  Level FlightAware Approximate
10:53PM -26.7466 118.9851 19° North 38,000  Level Aus ATC (Calculated)
10:55PM -26.9437 118.9070 199° South  Level FlightAware Approximate
10:56PM -26.8321 118.9513 19° North  Level FlightAware Approximate
10:56PM -26.4073 119.1171 19° North 432 497 38,200  Level Aus ATC (RADAR)
10:58PM -26.0534 119.2890 24° Northeast 628 723 38,200  Level Aus ATC (RADAR)
10:59PM -25.9144 119.3409 19° North 487 560 38,200  Level Aus ATC (RADAR)
11:00PM -25.8525 119.3670 21° North 481 554 38,200  Level Aus ATC (RADAR)
11:02PM -25.6269 119.4584 20° North 473 544 38,200  Level Aus ATC (RADAR)
11:02PM -25.5427 119.4944 21° North 482 555 38,200  Level Aus ATC (RADAR)
11:03PM -25.4914 119.5150 20° North 480 552 38,200 -120 Level Aus ATC (RADAR)
11:03PM -25.4292 119.5406 20° North 477 549 38,100 -120 Descending Aus ATC (RADAR)
11:04PM -25.3030 119.5934 21° North 481 554 38,100  Level Aus ATC (RADAR)
11:05PM -25.2304 119.6231 20° North 480 552 38,100 240 Level Aus ATC (RADAR)
11:08PM -24.9068 119.7560 20° North 488 562 39,000 240 Climbing Aus ATC (RADAR)
11:08PM -24.7936 119.8018 20° North 477 549 39,100 60 Climbing Aus ATC (RADAR)
11:09PM -24.7302 119.8280 21° North 481 554 39,100  Level Aus ATC (RADAR)
11:10PM -24.5828 119.8886 21° North 486 559 39,100  Level Aus ATC (RADAR)
11:11PM -24.5326 119.9088 20° North 477 549 39,100  Level Aus ATC (RADAR)
11:11PM -24.4194 119.9544 20° North 473 544 39,100  Level Aus ATC (RADAR)
11:13PM -24.2234 120.0342 20° North 472 543 39,100  Level Aus ATC (RADAR)
11:14PM -24.1422 120.0670 20° North 469 540 39,100  Level Aus ATC (RADAR)
11:14PM -24.0995 120.0844 20° North 475 547 39,100  Level Aus ATC (RADAR)
11:15PM -24.0380 120.1093 20° North 474 545 39,100  Level Aus ATC (RADAR)
11:15PM -23.9265 120.1543 20° North 466 536 39,100  Level Aus ATC (RADAR)
11:16PM -23.8403 120.1887 20° North 484 557 39,100  Level Aus ATC (RADAR)
11:18PM -23.6469 120.2668 20° North 472 543 39,100  Level Aus ATC (RADAR)
11:18PM -23.5649 120.3001 20° North 470 541 39,100  Level Aus ATC (RADAR)
11:19PM -23.5244 120.3166 20° North 467 537 39,100  Level Aus ATC (RADAR)
11:19PM -23.4610 120.3416 20° North 476 548 39,100  Level Aus ATC (RADAR)
11:20PM -23.3490 120.3872 20° North 467 537 39,100  Level Aus ATC (RADAR)
11:21PM -23.2855 120.4122 20° North 473 544 39,100  Level Aus ATC (RADAR)
11:22PM -23.1698 120.4576 20° North 478 550 39,100  Level Aus ATC (RADAR)
11:22PM -23.1175 120.4785 20° North 477 549 39,100  Level Aus ATC (RADAR)
11:23PM -22.9418 120.5483 20° North 474 545 39,100  Level Aus ATC (RADAR)
11:24PM -22.9006 120.5646 20° North 474 545 39,100  Level Aus ATC (RADAR)
11:24PM -22.8299 120.5933 21° North 468 539 39,100  Level Aus ATC (RADAR)
11:25PM -22.7364 120.6296 20° North 470 541 39,100  Level Aus ATC (RADAR)
11:25PM -22.6959 120.6457 20° North 467 537 39,100  Level Aus ATC (RADAR)
11:26PM -22.6156 120.6780 20° North 463 533 39,100  Level Aus ATC (RADAR)
11:27PM -22.5231 120.7142 20° North 467 537 39,100  Level Aus ATC (RADAR)
11:28PM -22.3291 120.7904 20° North 466 536 39,100  Level Aus ATC (RADAR)
11:29PM -22.2481 120.8228 20° North 462 532 39,100  Level Aus ATC (RADAR)
11:29PM -22.2066 120.8385 19° North 465 535 39,100  Level Aus ATC (RADAR)
11:30PM -22.1343 120.8661 19° North 468 539 39,100 -120 Level Aus ATC (RADAR)
11:31PM -22.0336 120.9065 20° North 463 533 39,000 -120 Descending Aus ATC (RADAR)
11:31PM -21.9624 120.9346 20° North 464 534 39,000  Level Aus ATC (RADAR)
11:32PM -21.8490 120.9782 20° North 467 537 39,000  Level Aus ATC (RADAR)
11:33PM -21.7266 121.0266 20° North 467 537 39,000  Level Aus ATC (RADAR)
11:34PM -21.6449 121.0582 20° North 465 535 39,000  Level Aus ATC (RADAR)
11:34PM -21.6038 121.0734 19° North 464 534 39,000  Level Aus ATC (RADAR)
11:35PM -21.5324 121.1002 19° North 463 533 39,000  Level Aus ATC (RADAR)
11:36PM -21.4323 121.1395 20° North 460 529 39,000  Level Aus ATC (RADAR)
11:36PM -21.3620 121.1667 20° North 458 527 39,000  Level Aus ATC (RADAR)
11:37PM -21.2623 121.2057 20° North 456 525 39,000  Level Aus ATC (RADAR)
11:38PM -21.1441 121.2527 20° North 454 522 39,000  Level Aus ATC (RADAR)
11:42PM -20.5997 121.4635 20° North 39,000  Level Aus ATC (Calculated)
11:44PM -20.3955 121.5421 20° North 39,000  Level Aus ATC (Calculated)
11:45PM -20.2253 121.6075 200° South 39,000  Level Aus ATC (Calculated)
11:46PM -20.2341 121.6042 20° North  Level FlightAware Approximate
11:46PM -20.1402 121.6402 20° North 39,000  Level Aus ATC (Calculated)
11:47PM -20.0338 121.6808 20° North 9,300 -24,120 Descending Aus ATC (Calculated)
11:47PM -19.9840 121.6998 200° South 9,300  Level Aus ATC (Calculated)
11:49PM -20.1344 121.6426 200° South  Level FlightAware Approximate
11:49PM -19.8391 121.7549 20° North 9,300  Level Aus ATC (Calculated)
11:50PM -19.7515 121.7882 200° South 9,300  Level Aus ATC (Calculated)
11:51PM -20.0359 121.6801 200° South  Level FlightAware Approximate
11:51PM -19.6694 121.8194 200° South 9,300  Level Aus ATC (Calculated)
11:53PM -19.8700 121.7432 200° South  Level FlightAware Approximate
11:53PM -19.4386 121.9068 200° South 9,300  Level Aus ATC (Calculated)
11:54PM -19.9814 121.7008 200° South  Level FlightAware Approximate
11:54PM -19.3135 121.9541 200° South 9,300  Level Aus ATC (Calculated)
11:55PM -19.5797 121.8534 200° South  Level FlightAware Approximate
11:56PM -19.1576 121.9859 20° North  Level Estimated
11:56PM -19.0945 122.0367 350° North 9,300  Level Aus ATC (Calculated)
11:57PM -19.0533 122.0292 21° North  Level FlightAware Approximate
11:58PM -18.9422 122.0940 20° North  Level FlightAware Approximate
11:59PM -18.8307 122.1359 20° North  Level FlightAware Approximate
11:59PM -18.7661 122.1601 360° North 9,300  Level Aus ATC (Calculated)
11:59PM -18.7661 122.1601 20° North 9,300  Level Aus ATC (Calculated)
12:01AM -18.6137 122.2172 20° North  Level FlightAware Approximate
12:02AM -18.5021 122.2589 20° North  Level FlightAware Approximate
12:02AM -18.3761 122.2771 123° Southeast 400  Level Aus ATC (Calculated)
12:03AM -18.3906 122.3006 20° North  Level FlightAware Approximate
12:04AM -18.5469 122.2938 175° South  Level FlightAware Approximate
12:05AM -18.4291 122.2823 355° North  Level FlightAware Approximate
12:05AM -18.1935 122.2554 174° South  Level Aus ATC (Calculated)
12:07AM -18.3739 122.2759 174° South  Level FlightAware Approximate
12:08AM -18.4916 122.2893 174° South  Level FlightAware Approximate
12:08AM -18.0077 122.2413 360° North 400  Level Aus ATC (Calculated)
12:08AM -18.0077 122.2413 352° North 400  Level Aus ATC (Calculated)
12:10AM -17.9447 122.2317 175° South  Level Estimated
12:11AM -17.9447 122.2317 355° North  Level Estimated
12:12AM -17.9447 122.2317 115° Southeast  Level Estimated
12:13AM -17.9463 122.2353 355° North  Level FlightAware Approximate
12:14AM -17.9447 122.2317 355° North  Level Estimated
12:15AM -17.9463 122.2353 355° North  Level FlightAware Approximate
12:16AM -17.9447 122.2317 355° North  Level Estimated
12:17AM -17.9463 122.2353 355° North  Level FlightAware Approximate
12:18AM -17.9447 122.2317 355° North  Level Estimated
12:19AM -17.9463 122.2353 355° North  Level FlightAware Approximate
12:20AM -17.9447 122.2317 355° North  Level Estimated
12:21AM -17.9463 122.2353 355° North  Level FlightAware Approximate